createdAt,value
2019-03-03T00:01:02.678Z,14.45
2019-03-03T00:03:34.847Z,14.61
2019-03-03T00:06:06.419Z,14.63
2019-03-03T00:08:38.303Z,14.61
2019-03-03T00:11:11.024Z,14.60
2019-03-03T00:13:42.607Z,14.62
2019-03-03T00:16:14.341Z,14.74
2019-03-03T00:18:46.094Z,14.59
2019-03-03T00:21:19.215Z,14.98
2019-03-03T00:23:50.821Z,14.74
2019-03-03T00:26:22.959Z,14.50
2019-03-03T00:28:56.084Z,14.50
2019-03-03T00:31:36.833Z,14.84
2019-03-03T00:34:09.604Z,14.64
2019-03-03T00:36:58.628Z,14.64
2019-03-03T00:40:07.445Z,14.47
2019-03-03T00:42:56.721Z,14.45
2019-03-03T00:45:39.274Z,14.45
2019-03-03T00:48:41.703Z,14.66
2019-03-03T00:51:38.643Z,14.68
2019-03-03T00:54:29.950Z,14.66
2019-03-03T00:57:13.366Z,14.66
2019-03-03T00:59:57.325Z,14.50
2019-03-03T01:02:49.324Z,14.50
2019-03-03T01:05:46.397Z,14.50
2019-03-03T01:08:45.939Z,14.57
2019-03-03T01:11:44.188Z,14.53
2019-03-03T01:14:35.732Z,14.47
2019-03-03T01:17:25.382Z,14.51
2019-03-03T01:20:08.723Z,14.51
2019-03-03T01:23:14.260Z,14.42
2019-03-03T01:25:46.314Z,14.42
2019-03-03T01:28:17.841Z,14.71
2019-03-03T01:30:49.359Z,14.71
2019-03-03T01:33:21.079Z,14.45
2019-03-03T01:35:52.658Z,14.45
2019-03-03T01:38:24.418Z,14.68
2019-03-03T01:40:56.115Z,14.66
2019-03-03T01:43:27.856Z,14.66
2019-03-03T01:45:59.791Z,14.56
2019-03-03T01:48:31.683Z,14.56
2019-03-03T01:51:03.351Z,14.67
2019-03-03T01:53:34.870Z,14.67
2019-03-03T01:56:07.035Z,14.72
2019-03-03T01:58:38.673Z,14.72
2019-03-03T02:01:10.425Z,14.81
2019-03-03T02:03:42.288Z,14.81
2019-03-03T02:06:13.842Z,17.56
2019-03-03T02:08:45.673Z,17.40
2019-03-03T02:11:19.406Z,16.42
2019-03-03T02:13:51.108Z,15.75
2019-03-03T02:16:23.227Z,15.34
2019-03-03T02:18:54.591Z,15.15
2019-03-03T02:21:26.359Z,15.33
2019-03-03T02:23:57.755Z,16.61
2019-03-03T02:26:29.645Z,15.84
2019-03-03T02:29:01.448Z,15.37
2019-03-03T02:31:33.219Z,15.37
2019-03-03T02:34:05.024Z,16.00
2019-03-03T02:36:36.857Z,16.10
2019-03-03T02:39:16.131Z,16.84
2019-03-03T02:41:48.123Z,16.35
2019-03-03T02:44:20.079Z,16.71
2019-03-03T02:46:51.930Z,16.71
2019-03-03T02:49:23.622Z,17.08
2019-03-03T02:51:55.326Z,17.08
2019-03-03T02:54:27.154Z,16.93
2019-03-03T02:57:00.482Z,17.01
2019-03-03T02:59:32.990Z,17.01
2019-03-03T03:02:09.335Z,16.73
2019-03-03T03:04:41.050Z,15.78
2019-03-03T03:07:17.612Z,16.44
2019-03-03T03:10:14.144Z,16.43
2019-03-03T03:12:55.011Z,16.43
2019-03-03T03:15:43.871Z,15.96
2019-03-03T03:18:35.662Z,15.60
2019-03-03T03:21:35.410Z,15.63
2019-03-03T03:24:14.684Z,17.30
2019-03-03T03:26:53.728Z,17.30
2019-03-03T03:29:50.730Z,17.24
2019-03-03T03:32:51.556Z,16.10
2019-03-03T03:35:40.120Z,16.05
2019-03-03T03:38:25.772Z,16.36
2019-03-03T03:41:17.412Z,16.36
2019-03-03T03:44:13.951Z,16.39
2019-03-03T03:47:00.197Z,16.11
2019-03-03T03:49:39.543Z,16.11
2019-03-03T03:52:26.408Z,16.48
2019-03-03T03:55:19.784Z,16.48
2019-03-03T03:58:04.389Z,16.63
2019-03-03T04:00:53.590Z,16.65
2019-03-03T04:03:41.383Z,16.69
2019-03-03T04:06:20.796Z,16.69
2019-03-03T04:09:18.653Z,16.70
2019-03-03T04:12:11.867Z,16.65
2019-03-03T04:14:52.810Z,16.65
2019-03-03T04:17:48.900Z,17.55
2019-03-03T04:20:42.916Z,16.74
2019-03-03T04:23:31.724Z,16.89
2019-03-03T04:26:35.111Z,16.89
2019-03-03T04:29:26.740Z,16.68
2019-03-03T04:32:04.437Z,17.17
2019-03-03T04:34:56.058Z,17.44
2019-03-03T04:37:42.981Z,17.39
2019-03-03T04:40:22.687Z,17.39
2019-03-03T04:43:16.076Z,17.84
2019-03-03T04:45:59.249Z,17.87
2019-03-03T04:48:36.548Z,17.86
2019-03-03T04:51:29.735Z,17.95
2019-03-03T04:54:20.490Z,17.81
2019-03-03T04:57:09.098Z,17.81
2019-03-03T05:00:02.414Z,18.27
2019-03-03T05:02:44.017Z,18.27
2019-03-03T05:05:34.529Z,18.16
2019-03-03T05:08:28.482Z,18.67
2019-03-03T05:11:25.261Z,18.70
2019-03-03T05:14:11.833Z,18.90
2019-03-03T05:17:11.175Z,18.90
2019-03-03T05:19:47.731Z,18.62
2019-03-03T05:22:19.410Z,18.70
2019-03-03T05:24:51.203Z,18.70
2019-03-03T05:27:23.220Z,18.93
2019-03-03T05:29:54.875Z,18.93
2019-03-03T05:32:26.428Z,19.11
2019-03-03T05:34:58.062Z,19.21
2019-03-03T05:37:29.761Z,19.45
2019-03-03T05:40:01.630Z,19.45
2019-03-03T05:42:34.398Z,19.73
2019-03-03T05:45:07.458Z,19.64
2019-03-03T05:47:38.880Z,19.55
2019-03-03T05:50:10.249Z,19.55
2019-03-03T05:52:41.956Z,19.72
2019-03-03T05:55:13.296Z,20.06
2019-03-03T05:57:45.452Z,20.14
2019-03-03T06:00:17.073Z,20.04
2019-03-03T06:02:48.796Z,20.04
2019-03-03T06:05:20.551Z,20.18
2019-03-03T06:07:52.337Z,20.18
2019-03-03T06:10:28.163Z,20.16
2019-03-03T06:12:59.885Z,20.09
2019-03-03T06:15:32.692Z,20.43
2019-03-03T06:18:04.422Z,20.43
2019-03-03T06:20:36.207Z,20.40
2019-03-03T06:23:07.848Z,20.44
2019-03-03T06:25:39.562Z,20.49
2019-03-03T06:28:11.129Z,20.73
2019-03-03T06:30:42.514Z,20.52
2019-03-03T06:33:14.679Z,20.52
2019-03-03T06:35:46.255Z,20.83
2019-03-03T06:38:18.107Z,20.87
2019-03-03T06:40:49.744Z,20.69
2019-03-03T06:43:21.219Z,20.64
2019-03-03T06:45:52.823Z,20.59
2019-03-03T06:48:24.505Z,20.30
2019-03-03T06:50:56.424Z,20.54
2019-03-03T06:53:28.048Z,20.54
2019-03-03T06:55:59.524Z,20.72
2019-03-03T06:58:31.735Z,20.81
2019-03-03T07:01:03.339Z,20.54
2019-03-03T07:03:35.021Z,20.72
2019-03-03T07:06:06.593Z,20.72
2019-03-03T07:08:38.176Z,20.86
2019-03-03T07:11:10.172Z,20.81
2019-03-03T07:13:41.955Z,20.94
2019-03-03T07:16:13.846Z,20.84
2019-03-03T07:18:45.639Z,20.80
2019-03-03T07:21:19.116Z,21.36
2019-03-03T07:23:50.966Z,21.36
2019-03-03T07:26:22.586Z,21.46
2019-03-03T07:28:54.846Z,21.45
2019-03-03T07:31:26.629Z,21.45
2019-03-03T07:34:01.157Z,21.54
2019-03-03T07:36:32.919Z,21.54
2019-03-03T07:39:06.429Z,21.56
2019-03-03T07:41:39.678Z,21.83
2019-03-03T07:44:11.293Z,21.76
2019-03-03T07:46:43.147Z,21.88
2019-03-03T07:49:14.607Z,21.88
2019-03-03T07:51:46.705Z,21.93
2019-03-03T07:54:19.422Z,21.76
2019-03-03T07:56:50.980Z,21.76
2019-03-03T07:59:22.495Z,21.71
2019-03-03T08:01:54.236Z,21.96
2019-03-03T08:04:25.933Z,22.08
2019-03-03T08:06:58.209Z,22.08
2019-03-03T08:09:29.624Z,21.85
2019-03-03T08:12:01.352Z,21.85
2019-03-03T08:14:33.232Z,22.31
2019-03-03T08:17:04.808Z,22.25
2019-03-03T08:19:36.159Z,22.14
2019-03-03T08:22:07.899Z,22.09
2019-03-03T08:24:39.518Z,22.26
2019-03-03T08:27:11.375Z,22.19
2019-03-03T08:29:42.813Z,22.19
2019-03-03T08:32:14.259Z,22.47
2019-03-03T08:34:45.984Z,22.36
2019-03-03T08:37:17.636Z,22.56
2019-03-03T08:39:49.188Z,22.35
2019-03-03T08:42:39.949Z,22.38
2019-03-03T08:45:28.898Z,22.47
2019-03-03T08:48:05.470Z,22.43
2019-03-03T08:50:51.935Z,22.47
2019-03-03T08:53:41.442Z,22.47
2019-03-03T08:56:30.519Z,22.35
2019-03-03T08:59:12.183Z,22.34
2019-03-03T09:01:49.650Z,22.37
2019-03-03T09:04:41.927Z,22.55
2019-03-03T09:07:28.606Z,22.45
2019-03-03T09:10:25.051Z,22.45
2019-03-03T09:13:18.529Z,22.54
2019-03-03T09:16:12.250Z,22.46
2019-03-03T09:19:01.473Z,22.59
2019-03-03T09:21:57.608Z,22.59
2019-03-03T09:24:43.412Z,22.68
2019-03-03T09:27:33.481Z,22.68
2019-03-03T09:30:36.263Z,22.58
2019-03-03T09:33:25.283Z,22.78
2019-03-03T09:36:08.262Z,22.56
2019-03-03T09:39:07.343Z,22.48
2019-03-03T09:42:08.079Z,22.64
2019-03-03T09:44:49.119Z,22.74
2019-03-03T09:47:57.887Z,22.75
2019-03-03T09:50:47.340Z,22.52
2019-03-03T09:53:37.926Z,22.52
2019-03-03T09:56:31.834Z,22.57
2019-03-03T09:59:28.869Z,22.53
2019-03-03T10:02:18.491Z,22.53
2019-03-03T10:04:58.091Z,22.73
2019-03-03T10:08:00.774Z,22.73
2019-03-03T10:10:45.522Z,22.62
2019-03-03T10:13:36.038Z,22.59
2019-03-03T10:16:18.691Z,22.59
2019-03-03T10:19:09.335Z,22.53
2019-03-03T10:22:05.271Z,22.60
2019-03-03T10:24:59.455Z,22.60
2019-03-03T10:27:48.230Z,22.47
2019-03-03T10:30:31.816Z,22.59
2019-03-03T10:33:31.752Z,22.59
2019-03-03T10:36:16.582Z,22.63
2019-03-03T10:38:54.793Z,22.67
2019-03-03T10:41:45.326Z,22.64
2019-03-03T10:44:54.364Z,22.69
2019-03-03T10:47:40.891Z,22.82
2019-03-03T10:50:19.648Z,22.74
2019-03-03T10:53:02.791Z,22.74
2019-03-03T10:55:39.867Z,22.70
2019-03-03T10:58:39.604Z,22.51
2019-03-03T11:01:30.508Z,22.64
2019-03-03T11:04:12.060Z,22.64
2019-03-03T11:07:08.426Z,22.69
2019-03-03T11:09:53.346Z,22.69
2019-03-03T11:12:47.577Z,22.61
2019-03-03T11:15:40.945Z,22.66
2019-03-03T11:18:37.381Z,22.61
2019-03-03T11:21:31.872Z,22.64
2019-03-03T11:24:13.664Z,22.65
2019-03-03T11:27:10.606Z,22.58
2019-03-03T11:30:07.970Z,22.61
2019-03-03T11:36:13.695Z,22.50
2019-03-03T11:39:03.319Z,22.50
2019-03-03T11:41:55.455Z,22.49
2019-03-03T11:45:05.314Z,22.48
2019-03-03T11:48:06.553Z,22.54
2019-03-03T11:50:55.789Z,22.53
2019-03-03T11:53:54.925Z,22.53
2019-03-03T11:56:45.920Z,22.42
2019-03-03T11:59:35.284Z,22.42
2019-03-03T12:02:32.744Z,22.42
2019-03-03T12:05:35.525Z,22.42
2019-03-03T12:08:41.657Z,22.31
2019-03-03T12:11:32.733Z,22.03
2019-03-03T12:14:35.804Z,21.77
2019-03-03T12:17:35.921Z,21.53
2019-03-03T12:20:36.050Z,21.53
2019-03-03T12:23:29.631Z,21.25
2019-03-03T12:26:20.303Z,21.25
2019-03-03T12:29:09.048Z,21.08
2019-03-03T12:32:08.279Z,21.08
2019-03-03T12:35:05.324Z,21.13
2019-03-03T12:38:12.192Z,20.82
2019-03-03T12:41:03.218Z,20.82
2019-03-03T12:43:53.681Z,20.75
2019-03-03T12:46:44.309Z,20.86
2019-03-03T12:49:23.696Z,20.92
2019-03-03T12:52:26.016Z,20.92
2019-03-03T12:55:17.090Z,20.71
2019-03-03T12:58:00.859Z,20.85
2019-03-03T13:00:53.506Z,20.71
2019-03-03T13:03:48.549Z,20.44
2019-03-03T13:06:35.412Z,20.40
2019-03-03T13:09:25.103Z,20.95
2019-03-03T13:12:18.870Z,20.67
2019-03-03T13:15:15.023Z,20.67
2019-03-03T13:17:53.053Z,20.50
2019-03-03T13:20:40.488Z,20.75
2019-03-03T13:23:20.859Z,20.42
2019-03-03T13:26:04.804Z,20.42
2019-03-03T13:28:53.905Z,20.71
2019-03-03T13:31:42.720Z,20.39
2019-03-03T13:34:31.410Z,20.81
2019-03-03T13:37:13.030Z,20.95
2019-03-03T13:40:01.854Z,20.95
2019-03-03T13:42:50.921Z,20.52
2019-03-03T13:45:23.298Z,20.52
2019-03-03T13:47:55.102Z,20.12
2019-03-03T13:50:27.336Z,20.87
2019-03-03T13:52:58.778Z,20.70
2019-03-03T13:55:31.451Z,20.84
2019-03-03T13:58:03.218Z,20.50
2019-03-03T14:00:35.281Z,20.43
2019-03-03T14:03:10.287Z,20.53
2019-03-03T14:05:41.822Z,20.53
2019-03-03T14:08:13.598Z,21.01
2019-03-03T14:10:45.428Z,20.55
2019-03-03T14:13:18.199Z,20.55
2019-03-03T14:15:50.217Z,20.47
2019-03-03T14:18:21.806Z,20.47
2019-03-03T14:20:53.694Z,20.23
2019-03-03T14:23:25.086Z,20.45
2019-03-03T14:25:56.821Z,20.67
2019-03-03T14:28:28.332Z,20.36
2019-03-03T14:30:59.889Z,20.49
2019-03-03T14:33:32.097Z,20.86
2019-03-03T14:36:03.762Z,20.86
2019-03-03T14:38:35.261Z,20.67
2019-03-03T14:41:07.195Z,20.67
2019-03-03T14:43:39.241Z,20.70
2019-03-03T14:46:11.367Z,20.70
2019-03-03T14:48:43.080Z,20.99
2019-03-03T14:51:14.762Z,20.97
2019-03-03T14:53:46.343Z,21.03
2019-03-03T14:56:18.261Z,20.94
2019-03-03T14:58:49.975Z,20.87
2019-03-03T15:01:21.664Z,20.94
2019-03-03T15:03:53.757Z,20.83
2019-03-03T15:06:25.577Z,20.46
2019-03-03T15:08:57.128Z,20.46
2019-03-03T15:11:28.781Z,20.22
2019-03-03T15:14:00.363Z,20.77
2019-03-03T15:16:31.810Z,20.62
2019-03-03T15:19:03.874Z,20.62
2019-03-03T15:21:35.696Z,20.02
2019-03-03T15:24:07.299Z,20.02
2019-03-03T15:26:39.326Z,19.67
2019-03-03T15:29:11.002Z,19.50
2019-03-03T15:31:42.779Z,19.50
2019-03-03T15:34:14.305Z,19.49
2019-03-03T15:36:45.945Z,19.40
2019-03-03T15:39:17.616Z,19.47
2019-03-03T15:41:49.079Z,19.36
2019-03-03T15:44:20.760Z,19.41
2019-03-03T15:46:52.653Z,19.35
2019-03-03T15:49:24.844Z,19.30
2019-03-03T15:51:56.633Z,19.38
2019-03-03T15:54:28.477Z,19.38
2019-03-03T15:57:00.378Z,19.24
2019-03-03T15:59:32.340Z,19.24
2019-03-03T16:02:04.484Z,19.28
2019-03-03T16:04:38.337Z,19.26
2019-03-03T16:07:09.884Z,19.26
2019-03-03T16:09:41.779Z,19.17
2019-03-03T16:12:13.504Z,19.17
2019-03-03T16:14:45.264Z,19.04
2019-03-03T16:17:18.645Z,18.92
2019-03-03T16:19:51.196Z,18.92
2019-03-03T16:22:23.123Z,19.08
2019-03-03T16:24:54.924Z,18.93
2019-03-03T16:27:26.372Z,18.89
2019-03-03T16:29:58.247Z,18.89
2019-03-03T16:32:29.704Z,18.84
2019-03-03T16:35:01.271Z,18.98
2019-03-03T16:37:32.703Z,18.98
2019-03-03T16:40:04.471Z,18.99
2019-03-03T16:42:54.502Z,18.96
2019-03-03T16:45:26.385Z,18.96
2019-03-03T16:47:58.353Z,18.96
2019-03-03T16:50:31.675Z,18.85
2019-03-03T16:53:03.787Z,18.85
2019-03-03T16:55:35.787Z,18.69
2019-03-03T16:58:07.646Z,18.69
2019-03-03T17:00:39.413Z,18.62
2019-03-03T17:03:11.107Z,18.67
2019-03-03T17:05:42.830Z,18.73
2019-03-03T17:08:14.594Z,18.73
2019-03-03T17:10:46.400Z,18.70
2019-03-03T17:13:18.099Z,18.70
2019-03-03T17:15:49.545Z,18.73
2019-03-03T17:18:21.337Z,18.57
2019-03-03T17:20:52.872Z,18.57
2019-03-03T17:23:24.549Z,18.61
2019-03-03T17:25:56.243Z,18.68
2019-03-03T17:28:27.948Z,18.68
2019-03-03T17:31:00.729Z,18.53
2019-03-03T17:33:32.410Z,18.53
2019-03-03T17:36:04.083Z,18.56
2019-03-03T17:38:35.869Z,18.33
2019-03-03T17:41:09.213Z,18.33
2019-03-03T17:43:40.608Z,18.34
2019-03-03T17:46:17.850Z,18.34
2019-03-03T17:48:49.524Z,18.47
2019-03-03T17:51:21.034Z,18.43
2019-03-03T17:53:52.603Z,18.31
2019-03-03T17:56:24.047Z,18.43
2019-03-03T17:58:56.637Z,18.43
2019-03-03T18:01:28.204Z,18.38
2019-03-03T18:03:59.854Z,18.42
2019-03-03T18:06:38.602Z,18.35
2019-03-03T18:09:05.916Z,18.35
2019-03-03T18:11:38.833Z,18.16
2019-03-03T18:14:10.263Z,18.16
2019-03-03T18:16:41.864Z,18.33
2019-03-03T18:19:13.749Z,18.23
2019-03-03T18:21:45.419Z,18.16
2019-03-03T18:24:16.961Z,18.16
2019-03-03T18:26:48.667Z,18.18
2019-03-03T18:29:20.143Z,18.18
2019-03-03T18:31:54.436Z,18.11
2019-03-03T18:34:26.373Z,18.11
2019-03-03T18:36:57.891Z,18.15
2019-03-03T18:39:30.160Z,18.26
2019-03-03T18:42:01.649Z,18.26
2019-03-03T18:44:34.727Z,18.14
2019-03-03T18:47:06.194Z,18.14
2019-03-03T18:49:38.143Z,18.02
2019-03-03T18:52:10.342Z,18.02
2019-03-03T18:54:42.040Z,18.16
2019-03-03T18:57:13.752Z,18.14
2019-03-03T18:59:45.466Z,17.91
2019-03-03T19:02:17.584Z,17.91
2019-03-03T19:04:49.836Z,17.95
2019-03-03T19:07:21.434Z,17.95
2019-03-03T19:09:53.265Z,17.91
2019-03-03T19:12:24.729Z,17.91
2019-03-03T19:14:56.658Z,17.95
2019-03-03T19:17:28.299Z,17.87
2019-03-03T19:20:00.229Z,17.87
2019-03-03T19:22:31.939Z,17.99
2019-03-03T19:25:03.628Z,17.90
2019-03-03T19:27:35.350Z,17.89
2019-03-03T19:30:08.937Z,17.79
2019-03-03T19:32:40.860Z,17.79
2019-03-03T19:35:12.992Z,17.78
2019-03-03T19:37:44.793Z,17.85
2019-03-03T19:40:17.044Z,17.85
2019-03-03T19:42:48.900Z,17.89
2019-03-03T19:45:26.008Z,17.89
2019-03-03T19:47:58.017Z,17.79
2019-03-03T19:50:29.682Z,17.86
2019-03-03T19:53:01.477Z,17.77
2019-03-03T19:55:33.394Z,17.77
2019-03-03T19:58:05.312Z,17.67
2019-03-03T20:00:39.035Z,17.67
2019-03-03T20:03:10.809Z,17.84
2019-03-03T20:05:42.371Z,17.65
2019-03-03T20:08:14.372Z,17.63
2019-03-03T20:10:46.809Z,17.63
2019-03-03T20:13:18.563Z,17.62
2019-03-03T20:15:50.349Z,17.61
2019-03-03T20:18:21.959Z,17.62
2019-03-03T20:20:53.391Z,17.41
2019-03-03T20:23:25.209Z,17.41
2019-03-03T20:25:56.748Z,17.38
2019-03-03T20:28:28.546Z,17.36
2019-03-03T20:31:01.802Z,17.36
2019-03-03T20:33:33.692Z,17.26
2019-03-03T20:36:05.090Z,17.10
2019-03-03T20:38:36.794Z,17.10
2019-03-03T20:41:08.293Z,17.29
2019-03-03T20:43:39.813Z,17.26
2019-03-03T20:46:11.507Z,17.26
2019-03-03T20:48:43.391Z,17.38
2019-03-03T20:51:14.855Z,17.37
2019-03-03T20:53:46.475Z,17.27
2019-03-03T20:56:18.297Z,17.23
2019-03-03T20:58:49.777Z,17.27
2019-03-03T21:01:22.336Z,17.27
2019-03-03T21:03:54.049Z,17.37
2019-03-03T21:06:25.524Z,17.29
2019-03-03T21:08:57.469Z,17.11
2019-03-03T21:11:29.110Z,17.22
2019-03-03T21:14:01.248Z,17.22
2019-03-03T21:16:32.933Z,17.12
2019-03-03T21:19:04.777Z,16.99
2019-03-03T21:21:36.399Z,17.21
2019-03-03T21:24:08.425Z,17.21
2019-03-03T21:26:40.037Z,17.20
2019-03-03T21:29:11.967Z,17.30
2019-03-03T21:31:43.703Z,17.30
2019-03-03T21:34:15.560Z,17.31
2019-03-03T21:36:47.055Z,17.31
2019-03-03T21:39:18.814Z,17.18
2019-03-03T21:41:50.810Z,17.11
2019-03-03T21:44:22.317Z,17.15
2019-03-03T21:46:54.257Z,17.10
2019-03-03T21:49:25.853Z,16.96
2019-03-03T21:51:57.644Z,16.88
2019-03-03T21:54:29.508Z,16.88
2019-03-03T21:57:01.352Z,17.08
2019-03-03T21:59:32.813Z,17.08
2019-03-03T22:02:04.888Z,17.14
2019-03-03T22:04:36.489Z,17.05
2019-03-03T22:07:08.381Z,17.03
2019-03-03T22:09:40.148Z,16.97
2019-03-03T22:12:11.654Z,16.97
2019-03-03T22:14:43.592Z,16.97
2019-03-03T22:17:15.391Z,16.97
2019-03-03T22:19:47.015Z,17.03
2019-03-03T22:22:18.426Z,17.03
2019-03-03T22:24:50.652Z,16.83
2019-03-03T22:27:22.335Z,16.74
2019-03-03T22:29:53.842Z,16.88
2019-03-03T22:32:25.503Z,16.84
2019-03-03T22:34:57.200Z,16.88
2019-03-03T22:37:28.878Z,16.88
2019-03-03T22:40:00.317Z,16.80
2019-03-03T22:42:31.834Z,16.92
2019-03-03T22:45:03.538Z,16.84
2019-03-03T22:47:35.378Z,16.84
2019-03-03T22:50:06.970Z,16.92
2019-03-03T22:52:38.910Z,16.91
2019-03-03T22:55:11.227Z,16.66
2019-03-03T22:57:42.867Z,16.64
2019-03-03T23:00:50.829Z,16.56
2019-03-03T23:03:43.185Z,16.62
2019-03-03T23:06:26.148Z,16.65
2019-03-03T23:09:46.355Z,16.73
2019-03-03T23:12:51.864Z,16.64
2019-03-03T23:16:02.833Z,16.71
2019-03-03T23:19:19.503Z,16.71
2019-03-03T23:22:31.218Z,16.56
2019-03-03T23:25:57.392Z,16.56
2019-03-03T23:28:31.328Z,16.64
2019-03-03T23:31:03.004Z,16.65
2019-03-03T23:33:34.505Z,16.65
2019-03-03T23:36:06.343Z,16.58
2019-03-03T23:38:37.808Z,16.59
2019-03-03T23:41:09.429Z,16.56
2019-03-03T23:43:41.023Z,16.47
2019-03-03T23:46:12.681Z,16.51
2019-03-03T23:48:44.718Z,16.67
2019-03-03T23:51:17.173Z,16.78
2019-03-03T23:53:49.099Z,16.78
2019-03-03T23:56:20.870Z,16.78
2019-03-03T23:58:52.595Z,16.64
